sensor_id;sensor_type;location;lat;lon;timestamp;P1;durP1;ratioP1;P2;durP2;ratioP2
61640;SDS011;62201;49.966;8.342;2022-08-19T00:00:36;14.02;;;12.52;;
61640;SDS011;62201;49.966;8.342;2022-08-19T00:03:02;14.75;;;12.35;;
61640;SDS011;62201;49.966;8.342;2022-08-19T00:05:29;17.63;;;12.95;;
61640;SDS011;62201;49.966;8.342;2022-08-19T00:07:55;16.92;;;12.73;;
61640;SDS011;62201;49.966;8.342;2022-08-19T00:10:21;16.02;;;12.90;;
61640;SDS011;62201;49.966;8.342;2022-08-19T00:12:46;16.55;;;13.23;;
61640;SDS011;62201;49.966;8.342;2022-08-19T00:15:13;15.07;;;12.93;;
61640;SDS011;62201;49.966;8.342;2022-08-19T00:17:40;16.08;;;13.95;;
61640;SDS011;62201;49.966;8.342;2022-08-19T00:20:08;16.42;;;13.60;;
61640;SDS011;62201;49.966;8.342;2022-08-19T00:22:35;16.08;;;13.65;;
61640;SDS011;62201;49.966;8.342;2022-08-19T00:25:02;18.80;;;14.07;;
61640;SDS011;62201;49.966;8.342;2022-08-19T00:27:28;16.70;;;13.80;;
61640;SDS011;62201;49.966;8.342;2022-08-19T00:29:53;18.60;;;14.50;;
61640;SDS011;62201;49.966;8.342;2022-08-19T00:32:19;16.00;;;13.15;;
61640;SDS011;62201;49.966;8.342;2022-08-19T00:34:45;19.20;;;15.32;;
61640;SDS011;62201;49.966;8.342;2022-08-19T00:37:11;22.42;;;16.80;;
61640;SDS011;62201;49.966;8.342;2022-08-19T00:39:36;19.00;;;16.42;;
61640;SDS011;62201;49.966;8.342;2022-08-19T00:42:02;18.17;;;15.50;;
61640;SDS011;62201;49.966;8.342;2022-08-19T00:44:28;19.02;;;16.70;;
61640;SDS011;62201;49.966;8.342;2022-08-19T00:46:56;22.25;;;17.35;;
61640;SDS011;62201;49.966;8.342;2022-08-19T00:49:28;22.45;;;16.90;;
61640;SDS011;62201;49.966;8.342;2022-08-19T00:52:03;19.70;;;16.80;;
61640;SDS011;62201;49.966;8.342;2022-08-19T00:54:32;20.17;;;16.13;;
61640;SDS011;62201;49.966;8.342;2022-08-19T00:56:58;17.77;;;15.25;;
61640;SDS011;62201;49.966;8.342;2022-08-19T00:59:24;18.13;;;15.32;;
61640;SDS011;62201;49.966;8.342;2022-08-19T01:01:50;16.77;;;15.00;;
61640;SDS011;62201;49.966;8.342;2022-08-19T01:04:17;18.63;;;15.05;;
61640;SDS011;62201;49.966;8.342;2022-08-19T01:06:42;19.73;;;14.55;;
61640;SDS011;62201;49.966;8.342;2022-08-19T01:09:08;19.85;;;14.13;;
61640;SDS011;62201;49.966;8.342;2022-08-19T01:11:34;20.30;;;13.90;;
61640;SDS011;62201;49.966;8.342;2022-08-19T01:14:04;19.08;;;14.50;;
61640;SDS011;62201;49.966;8.342;2022-08-19T01:16:30;15.30;;;13.52;;
61640;SDS011;62201;49.966;8.342;2022-08-19T01:18:57;17.60;;;14.20;;
61640;SDS011;62201;49.966;8.342;2022-08-19T01:21:26;20.52;;;14.50;;
61640;SDS011;62201;49.966;8.342;2022-08-19T01:24:22;18.75;;;14.15;;
61640;SDS011;62201;49.966;8.342;2022-08-19T01:26:47;17.75;;;13.68;;
61640;SDS011;62201;49.966;8.342;2022-08-19T01:29:13;15.10;;;13.50;;
61640;SDS011;62201;49.966;8.342;2022-08-19T01:31:39;18.15;;;13.65;;
61640;SDS011;62201;49.966;8.342;2022-08-19T01:34:04;18.52;;;13.98;;
61640;SDS011;62201;49.966;8.342;2022-08-19T01:39:03;15.25;;;13.13;;
61640;SDS011;62201;49.966;8.342;2022-08-19T01:41:31;15.77;;;13.40;;
61640;SDS011;62201;49.966;8.342;2022-08-19T01:43:56;17.13;;;14.05;;
61640;SDS011;62201;49.966;8.342;2022-08-19T01:46:22;18.15;;;13.38;;
61640;SDS011;62201;49.966;8.342;2022-08-19T01:48:47;14.82;;;12.98;;
61640;SDS011;62201;49.966;8.342;2022-08-19T01:51:13;19.63;;;13.23;;
61640;SDS011;62201;49.966;8.342;2022-08-19T01:53:39;17.02;;;13.07;;
61640;SDS011;62201;49.966;8.342;2022-08-19T01:56:05;20.17;;;12.35;;
61640;SDS011;62201;49.966;8.342;2022-08-19T01:58:32;14.30;;;12.80;;
61640;SDS011;62201;49.966;8.342;2022-08-19T02:01:03;15.00;;;12.43;;
61640;SDS011;62201;49.966;8.342;2022-08-19T02:03:29;16.02;;;11.75;;
61640;SDS011;62201;49.966;8.342;2022-08-19T02:05:59;15.90;;;12.18;;
61640;SDS011;62201;49.966;8.342;2022-08-19T02:08:26;14.35;;;11.88;;
61640;SDS011;62201;49.966;8.342;2022-08-19T02:10:52;16.88;;;11.68;;
61640;SDS011;62201;49.966;8.342;2022-08-19T02:13:18;14.38;;;11.57;;
61640;SDS011;62201;49.966;8.342;2022-08-19T02:15:43;17.42;;;12.02;;
61640;SDS011;62201;49.966;8.342;2022-08-19T02:18:09;16.27;;;11.75;;
61640;SDS011;62201;49.966;8.342;2022-08-19T02:20:35;15.82;;;11.70;;
61640;SDS011;62201;49.966;8.342;2022-08-19T02:23:02;14.95;;;12.50;;
61640;SDS011;62201;49.966;8.342;2022-08-19T02:25:27;15.02;;;12.85;;
61640;SDS011;62201;49.966;8.342;2022-08-19T02:27:53;18.27;;;12.60;;
61640;SDS011;62201;49.966;8.342;2022-08-19T02:30:19;15.32;;;13.02;;
61640;SDS011;62201;49.966;8.342;2022-08-19T02:32:44;17.25;;;12.73;;
61640;SDS011;62201;49.966;8.342;2022-08-19T02:35:10;15.52;;;12.82;;
61640;SDS011;62201;49.966;8.342;2022-08-19T02:37:36;19.08;;;13.18;;
61640;SDS011;62201;49.966;8.342;2022-08-19T02:40:20;14.70;;;12.75;;
61640;SDS011;62201;49.966;8.342;2022-08-19T02:42:46;16.73;;;12.65;;
61640;SDS011;62201;49.966;8.342;2022-08-19T02:45:12;15.60;;;12.93;;
61640;SDS011;62201;49.966;8.342;2022-08-19T02:47:38;15.73;;;13.85;;
61640;SDS011;62201;49.966;8.342;2022-08-19T02:50:05;15.75;;;12.77;;
61640;SDS011;62201;49.966;8.342;2022-08-19T02:52:32;19.23;;;13.25;;
61640;SDS011;62201;49.966;8.342;2022-08-19T02:54:58;19.20;;;13.45;;
61640;SDS011;62201;49.966;8.342;2022-08-19T02:57:25;18.42;;;13.27;;
61640;SDS011;62201;49.966;8.342;2022-08-19T02:59:50;16.98;;;12.80;;
61640;SDS011;62201;49.966;8.342;2022-08-19T03:02:16;15.65;;;12.30;;
61640;SDS011;62201;49.966;8.342;2022-08-19T03:04:42;13.85;;;12.38;;
61640;SDS011;62201;49.966;8.342;2022-08-19T03:07:07;17.10;;;12.55;;
61640;SDS011;62201;49.966;8.342;2022-08-19T03:09:35;25.65;;;13.00;;
61640;SDS011;62201;49.966;8.342;2022-08-19T03:12:03;15.45;;;11.95;;
61640;SDS011;62201;49.966;8.342;2022-08-19T03:14:35;17.88;;;13.38;;
61640;SDS011;62201;49.966;8.342;2022-08-19T03:17:01;20.52;;;12.18;;
61640;SDS011;62201;49.966;8.342;2022-08-19T03:19:29;13.70;;;12.10;;
61640;SDS011;62201;49.966;8.342;2022-08-19T03:21:54;17.10;;;11.68;;
61640;SDS011;62201;49.966;8.342;2022-08-19T03:24:20;17.95;;;12.32;;
61640;SDS011;62201;49.966;8.342;2022-08-19T03:26:52;15.52;;;11.90;;
61640;SDS011;62201;49.966;8.342;2022-08-19T03:29:23;16.00;;;12.57;;
61640;SDS011;62201;49.966;8.342;2022-08-19T03:31:50;17.25;;;12.43;;
61640;SDS011;62201;49.966;8.342;2022-08-19T03:34:20;14.55;;;11.48;;
61640;SDS011;62201;49.966;8.342;2022-08-19T03:36:51;13.95;;;12.00;;
61640;SDS011;62201;49.966;8.342;2022-08-19T03:39:19;16.15;;;11.27;;
61640;SDS011;62201;49.966;8.342;2022-08-19T03:41:45;15.18;;;12.30;;
61640;SDS011;62201;49.966;8.342;2022-08-19T03:44:12;17.10;;;12.15;;
61640;SDS011;62201;49.966;8.342;2022-08-19T03:46:39;15.50;;;11.50;;
61640;SDS011;62201;49.966;8.342;2022-08-19T03:49:04;18.02;;;12.02;;
61640;SDS011;62201;49.966;8.342;2022-08-19T03:51:34;15.85;;;11.35;;
61640;SDS011;62201;49.966;8.342;2022-08-19T03:54:03;13.90;;;11.73;;
61640;SDS011;62201;49.966;8.342;2022-08-19T03:56:30;13.40;;;11.60;;
61640;SDS011;62201;49.966;8.342;2022-08-19T03:58:58;16.95;;;11.25;;
61640;SDS011;62201;49.966;8.342;2022-08-19T04:01:26;15.02;;;11.68;;
61640;SDS011;62201;49.966;8.342;2022-08-19T04:03:53;17.85;;;11.98;;
61640;SDS011;62201;49.966;8.342;2022-08-19T04:06:22;14.88;;;11.60;;
61640;SDS011;62201;49.966;8.342;2022-08-19T04:08:50;14.80;;;12.68;;
61640;SDS011;62201;49.966;8.342;2022-08-19T04:11:20;14.27;;;12.32;;
61640;SDS011;62201;49.966;8.342;2022-08-19T04:13:48;14.63;;;12.13;;
61640;SDS011;62201;49.966;8.342;2022-08-19T04:16:16;16.27;;;11.93;;
61640;SDS011;62201;49.966;8.342;2022-08-19T04:18:42;19.20;;;12.70;;
61640;SDS011;62201;49.966;8.342;2022-08-19T04:21:08;16.60;;;12.45;;
61640;SDS011;62201;49.966;8.342;2022-08-19T04:23:41;15.20;;;12.70;;
61640;SDS011;62201;49.966;8.342;2022-08-19T04:26:07;17.23;;;11.65;;
61640;SDS011;62201;49.966;8.342;2022-08-19T04:28:36;18.55;;;12.75;;
61640;SDS011;62201;49.966;8.342;2022-08-19T04:31:02;15.75;;;12.70;;
61640;SDS011;62201;49.966;8.342;2022-08-19T04:33:27;15.82;;;12.68;;
61640;SDS011;62201;49.966;8.342;2022-08-19T04:35:53;15.65;;;12.65;;
61640;SDS011;62201;49.966;8.342;2022-08-19T04:38:20;15.38;;;12.60;;
61640;SDS011;62201;49.966;8.342;2022-08-19T04:40:48;15.40;;;12.40;;
61640;SDS011;62201;49.966;8.342;2022-08-19T04:43:34;18.45;;;12.15;;
61640;SDS011;62201;49.966;8.342;2022-08-19T04:46:08;15.00;;;12.27;;
61640;SDS011;62201;49.966;8.342;2022-08-19T04:48:35;16.10;;;12.85;;
61640;SDS011;62201;49.966;8.342;2022-08-19T04:51:01;15.68;;;12.07;;
61640;SDS011;62201;49.966;8.342;2022-08-19T04:53:31;15.43;;;13.30;;
61640;SDS011;62201;49.966;8.342;2022-08-19T04:55:58;15.35;;;12.27;;
61640;SDS011;62201;49.966;8.342;2022-08-19T04:58:25;17.17;;;12.43;;
61640;SDS011;62201;49.966;8.342;2022-08-19T05:00:52;14.43;;;11.73;;
61640;SDS011;62201;49.966;8.342;2022-08-19T05:03:18;13.80;;;11.50;;
61640;SDS011;62201;49.966;8.342;2022-08-19T05:05:44;15.20;;;11.60;;
61640;SDS011;62201;49.966;8.342;2022-08-19T05:08:11;14.82;;;11.68;;
61640;SDS011;62201;49.966;8.342;2022-08-19T05:10:37;15.15;;;11.43;;
61640;SDS011;62201;49.966;8.342;2022-08-19T05:13:04;15.02;;;11.25;;
61640;SDS011;62201;49.966;8.342;2022-08-19T05:15:30;17.02;;;12.07;;
61640;SDS011;62201;49.966;8.342;2022-08-19T05:17:56;15.55;;;11.52;;
61640;SDS011;62201;49.966;8.342;2022-08-19T05:20:40;14.00;;;10.95;;
61640;SDS011;62201;49.966;8.342;2022-08-19T05:23:24;12.40;;;11.10;;
61640;SDS011;62201;49.966;8.342;2022-08-19T05:25:50;12.50;;;11.07;;
61640;SDS011;62201;49.966;8.342;2022-08-19T05:28:16;14.02;;;10.70;;
61640;SDS011;62201;49.966;8.342;2022-08-19T05:30:43;14.10;;;11.52;;
61640;SDS011;62201;49.966;8.342;2022-08-19T05:33:09;16.02;;;11.05;;
61640;SDS011;62201;49.966;8.342;2022-08-19T05:35:36;15.95;;;11.38;;
61640;SDS011;62201;49.966;8.342;2022-08-19T05:38:04;12.80;;;11.10;;
61640;SDS011;62201;49.966;8.342;2022-08-19T05:40:33;16.85;;;11.43;;
61640;SDS011;62201;49.966;8.342;2022-08-19T05:43:02;14.88;;;10.85;;
61640;SDS011;62201;49.966;8.342;2022-08-19T05:45:29;14.07;;;10.95;;
61640;SDS011;62201;49.966;8.342;2022-08-19T05:47:55;15.27;;;11.38;;
61640;SDS011;62201;49.966;8.342;2022-08-19T05:50:20;13.90;;;11.15;;
61640;SDS011;62201;49.966;8.342;2022-08-19T05:52:46;15.55;;;10.98;;
61640;SDS011;62201;49.966;8.342;2022-08-19T05:55:11;17.95;;;11.30;;
61640;SDS011;62201;49.966;8.342;2022-08-19T05:57:37;11.90;;;10.50;;
61640;SDS011;62201;49.966;8.342;2022-08-19T06:00:04;14.57;;;11.07;;
61640;SDS011;62201;49.966;8.342;2022-08-19T06:02:34;15.48;;;10.85;;
61640;SDS011;62201;49.966;8.342;2022-08-19T06:05:00;18.33;;;11.07;;
61640;SDS011;62201;49.966;8.342;2022-08-19T06:07:26;12.50;;;10.40;;
61640;SDS011;62201;49.966;8.342;2022-08-19T06:09:53;17.10;;;10.95;;
61640;SDS011;62201;49.966;8.342;2022-08-19T06:12:19;13.73;;;10.45;;
61640;SDS011;62201;49.966;8.342;2022-08-19T06:14:44;10.80;;;9.68;;
61640;SDS011;62201;49.966;8.342;2022-08-19T06:17:09;14.63;;;10.82;;
61640;SDS011;62201;49.966;8.342;2022-08-19T06:19:36;13.82;;;10.60;;
61640;SDS011;62201;49.966;8.342;2022-08-19T06:22:02;15.18;;;11.00;;
61640;SDS011;62201;49.966;8.342;2022-08-19T06:24:29;14.20;;;10.50;;
61640;SDS011;62201;49.966;8.342;2022-08-19T06:26:55;12.10;;;9.55;;
61640;SDS011;62201;49.966;8.342;2022-08-19T06:29:23;15.63;;;9.95;;
61640;SDS011;62201;49.966;8.342;2022-08-19T06:31:50;15.02;;;10.05;;
61640;SDS011;62201;49.966;8.342;2022-08-19T06:34:18;13.13;;;9.90;;
61640;SDS011;62201;49.966;8.342;2022-08-19T06:36:45;13.80;;;9.23;;
61640;SDS011;62201;49.966;8.342;2022-08-19T06:39:14;11.90;;;9.55;;
61640;SDS011;62201;49.966;8.342;2022-08-19T06:41:45;11.50;;;8.88;;
61640;SDS011;62201;49.966;8.342;2022-08-19T06:44:12;11.05;;;9.10;;
61640;SDS011;62201;49.966;8.342;2022-08-19T06:46:39;12.38;;;8.68;;
61640;SDS011;62201;49.966;8.342;2022-08-19T06:49:06;14.88;;;8.90;;
61640;SDS011;62201;49.966;8.342;2022-08-19T06:51:34;17.58;;;8.52;;
61640;SDS011;62201;49.966;8.342;2022-08-19T06:54:00;14.43;;;8.68;;
61640;SDS011;62201;49.966;8.342;2022-08-19T06:56:27;13.00;;;8.45;;
61640;SDS011;62201;49.966;8.342;2022-08-19T06:58:57;15.43;;;8.95;;
61640;SDS011;62201;49.966;8.342;2022-08-19T07:01:22;12.52;;;8.80;;
61640;SDS011;62201;49.966;8.342;2022-08-19T07:03:48;17.63;;;8.45;;
61640;SDS011;62201;49.966;8.342;2022-08-19T07:06:14;18.10;;;7.97;;
61640;SDS011;62201;49.966;8.342;2022-08-19T07:08:42;12.63;;;7.63;;
61640;SDS011;62201;49.966;8.342;2022-08-19T07:11:13;14.13;;;8.20;;
61640;SDS011;62201;49.966;8.342;2022-08-19T07:13:42;9.23;;;7.25;;
61640;SDS011;62201;49.966;8.342;2022-08-19T07:16:11;11.73;;;7.05;;
61640;SDS011;62201;49.966;8.342;2022-08-19T07:18:38;13.32;;;7.82;;
61640;SDS011;62201;49.966;8.342;2022-08-19T07:21:05;10.63;;;8.30;;
61640;SDS011;62201;49.966;8.342;2022-08-19T07:23:32;10.13;;;7.55;;
61640;SDS011;62201;49.966;8.342;2022-08-19T07:25:58;12.27;;;7.80;;
61640;SDS011;62201;49.966;8.342;2022-08-19T07:28:28;11.90;;;7.03;;
61640;SDS011;62201;49.966;8.342;2022-08-19T07:30:54;15.15;;;7.68;;
61640;SDS011;62201;49.966;8.342;2022-08-19T07:33:19;13.27;;;7.60;;
61640;SDS011;62201;49.966;8.342;2022-08-19T07:35:45;14.10;;;7.55;;
61640;SDS011;62201;49.966;8.342;2022-08-19T07:38:10;14.02;;;8.25;;
61640;SDS011;62201;49.966;8.342;2022-08-19T07:40:35;12.85;;;8.20;;
61640;SDS011;62201;49.966;8.342;2022-08-19T07:43:01;12.02;;;6.85;;
61640;SDS011;62201;49.966;8.342;2022-08-19T07:45:26;9.95;;;7.30;;
61640;SDS011;62201;49.966;8.342;2022-08-19T07:47:53;19.00;;;7.20;;
61640;SDS011;62201;49.966;8.342;2022-08-19T07:50:19;15.65;;;6.72;;
61640;SDS011;62201;49.966;8.342;2022-08-19T07:52:46;9.75;;;7.20;;
61640;SDS011;62201;49.966;8.342;2022-08-19T07:55:17;12.35;;;8.50;;
61640;SDS011;62201;49.966;8.342;2022-08-19T07:57:48;8.90;;;7.97;;
61640;SDS011;62201;49.966;8.342;2022-08-19T08:00:14;11.18;;;8.43;;
61640;SDS011;62201;49.966;8.342;2022-08-19T08:02:40;12.07;;;7.70;;
61640;SDS011;62201;49.966;8.342;2022-08-19T08:05:07;8.10;;;7.03;;
61640;SDS011;62201;49.966;8.342;2022-08-19T08:07:52;8.20;;;6.93;;
61640;SDS011;62201;49.966;8.342;2022-08-19T08:10:36;16.40;;;7.40;;
61640;SDS011;62201;49.966;8.342;2022-08-19T08:13:02;13.90;;;7.80;;
61640;SDS011;62201;49.966;8.342;2022-08-19T08:15:29;12.07;;;7.63;;
61640;SDS011;62201;49.966;8.342;2022-08-19T08:17:55;10.50;;;8.32;;
61640;SDS011;62201;49.966;8.342;2022-08-19T08:20:22;11.07;;;6.32;;
61640;SDS011;62201;49.966;8.342;2022-08-19T08:22:48;10.55;;;7.78;;
61640;SDS011;62201;49.966;8.342;2022-08-19T08:25:32;9.77;;;7.80;;
61640;SDS011;62201;49.966;8.342;2022-08-19T08:27:58;11.23;;;6.72;;
61640;SDS011;62201;49.966;8.342;2022-08-19T08:30:25;10.50;;;7.10;;
61640;SDS011;62201;49.966;8.342;2022-08-19T08:32:52;9.00;;;6.22;;
61640;SDS011;62201;49.966;8.342;2022-08-19T08:35:19;8.02;;;6.15;;
61640;SDS011;62201;49.966;8.342;2022-08-19T08:37:48;10.25;;;6.50;;
61640;SDS011;62201;49.966;8.342;2022-08-19T08:40:23;10.48;;;7.47;;
61640;SDS011;62201;49.966;8.342;2022-08-19T08:43:07;11.53;;;6.40;;
61640;SDS011;62201;49.966;8.342;2022-08-19T08:45:50;8.07;;;5.88;;
61640;SDS011;62201;49.966;8.342;2022-08-19T08:48:55;8.95;;;6.22;;
61640;SDS011;62201;49.966;8.342;2022-08-19T08:51:25;9.13;;;5.88;;
61640;SDS011;62201;49.966;8.342;2022-08-19T08:53:54;8.13;;;6.50;;
61640;SDS011;62201;49.966;8.342;2022-08-19T08:56:21;9.07;;;5.68;;
61640;SDS011;62201;49.966;8.342;2022-08-19T09:01:33;11.15;;;6.63;;
61640;SDS011;62201;49.966;8.342;2022-08-19T09:03:58;10.43;;;7.55;;
61640;SDS011;62201;49.966;8.342;2022-08-19T09:06:29;12.90;;;7.72;;
61640;SDS011;62201;49.966;8.342;2022-08-19T09:09:09;10.25;;;7.30;;
61640;SDS011;62201;49.966;8.342;2022-08-19T09:14:57;8.55;;;6.60;;
61640;SDS011;62201;49.966;8.342;2022-08-19T09:17:27;13.88;;;7.97;;
61640;SDS011;62201;49.966;8.342;2022-08-19T09:20:00;12.63;;;7.95;;
61640;SDS011;62201;49.966;8.342;2022-08-19T09:22:32;12.20;;;10.32;;
61640;SDS011;62201;49.966;8.342;2022-08-19T09:24:57;13.90;;;10.27;;
61640;SDS011;62201;49.966;8.342;2022-08-19T09:27:23;11.52;;;8.70;;
61640;SDS011;62201;49.966;8.342;2022-08-19T09:29:50;12.68;;;8.10;;
61640;SDS011;62201;49.966;8.342;2022-08-19T09:32:16;14.20;;;9.85;;
61640;SDS011;62201;49.966;8.342;2022-08-19T09:34:43;12.73;;;8.77;;
61640;SDS011;62201;49.966;8.342;2022-08-19T09:37:08;11.65;;;8.23;;
61640;SDS011;62201;49.966;8.342;2022-08-19T09:39:35;13.40;;;7.38;;
61640;SDS011;62201;49.966;8.342;2022-08-19T09:42:00;8.43;;;7.47;;
61640;SDS011;62201;49.966;8.342;2022-08-19T09:44:27;9.93;;;8.25;;
61640;SDS011;62201;49.966;8.342;2022-08-19T09:46:52;11.48;;;8.13;;
61640;SDS011;62201;49.966;8.342;2022-08-19T09:49:18;9.48;;;8.07;;
61640;SDS011;62201;49.966;8.342;2022-08-19T09:51:48;11.02;;;8.02;;
61640;SDS011;62201;49.966;8.342;2022-08-19T09:54:15;14.50;;;7.72;;
61640;SDS011;62201;49.966;8.342;2022-08-19T09:56:40;10.73;;;9.68;;
61640;SDS011;62201;49.966;8.342;2022-08-19T09:59:08;10.35;;;7.53;;
61640;SDS011;62201;49.966;8.342;2022-08-19T10:01:35;11.73;;;8.63;;
61640;SDS011;62201;49.966;8.342;2022-08-19T10:04:00;9.73;;;8.05;;
61640;SDS011;62201;49.966;8.342;2022-08-19T10:06:29;11.07;;;9.23;;
61640;SDS011;62201;49.966;8.342;2022-08-19T10:08:57;9.93;;;8.90;;
61640;SDS011;62201;49.966;8.342;2022-08-19T10:11:23;10.73;;;8.90;;
61640;SDS011;62201;49.966;8.342;2022-08-19T10:13:48;10.25;;;8.68;;
61640;SDS011;62201;49.966;8.342;2022-08-19T10:16:18;10.63;;;7.68;;
61640;SDS011;62201;49.966;8.342;2022-08-19T10:18:47;8.60;;;7.38;;
61640;SDS011;62201;49.966;8.342;2022-08-19T10:21:16;13.35;;;8.15;;
61640;SDS011;62201;49.966;8.342;2022-08-19T10:23:48;11.45;;;7.72;;
61640;SDS011;62201;49.966;8.342;2022-08-19T10:26:17;11.20;;;7.82;;
61640;SDS011;62201;49.966;8.342;2022-08-19T10:31:15;9.40;;;6.57;;
61640;SDS011;62201;49.966;8.342;2022-08-19T10:33:45;6.80;;;6.10;;
61640;SDS011;62201;49.966;8.342;2022-08-19T10:36:13;8.23;;;6.60;;
61640;SDS011;62201;49.966;8.342;2022-08-19T10:38:42;11.18;;;7.50;;
61640;SDS011;62201;49.966;8.342;2022-08-19T10:41:13;7.40;;;6.60;;
61640;SDS011;62201;49.966;8.342;2022-08-19T10:43:44;6.53;;;5.90;;
61640;SDS011;62201;49.966;8.342;2022-08-19T10:46:11;7.72;;;5.00;;
61640;SDS011;62201;49.966;8.342;2022-08-19T10:48:38;10.98;;;6.80;;
61640;SDS011;62201;49.966;8.342;2022-08-19T10:51:04;7.40;;;6.45;;
61640;SDS011;62201;49.966;8.342;2022-08-19T10:53:49;7.38;;;5.10;;
61640;SDS011;62201;49.966;8.342;2022-08-19T10:56:15;7.97;;;4.82;;
61640;SDS011;62201;49.966;8.342;2022-08-19T10:58:59;8.88;;;4.47;;
61640;SDS011;62201;49.966;8.342;2022-08-19T11:01:26;9.57;;;5.05;;
61640;SDS011;62201;49.966;8.342;2022-08-19T11:03:51;5.72;;;4.45;;
61640;SDS011;62201;49.966;8.342;2022-08-19T11:06:17;8.00;;;4.32;;
61640;SDS011;62201;49.966;8.342;2022-08-19T11:08:44;5.18;;;4.53;;
61640;SDS011;62201;49.966;8.342;2022-08-19T11:11:10;8.05;;;4.90;;
61640;SDS011;62201;49.966;8.342;2022-08-19T11:13:38;8.88;;;4.07;;
61640;SDS011;62201;49.966;8.342;2022-08-19T11:18:35;5.20;;;3.33;;
61640;SDS011;62201;49.966;8.342;2022-08-19T11:21:06;3.95;;;3.30;;
61640;SDS011;62201;49.966;8.342;2022-08-19T11:23:35;6.80;;;3.42;;
61640;SDS011;62201;49.966;8.342;2022-08-19T11:26:00;5.90;;;3.45;;
61640;SDS011;62201;49.966;8.342;2022-08-19T11:28:26;5.65;;;4.20;;
61640;SDS011;62201;49.966;8.342;2022-08-19T11:30:52;4.40;;;4.00;;
61640;SDS011;62201;49.966;8.342;2022-08-19T11:33:17;8.20;;;4.32;;
61640;SDS011;62201;49.966;8.342;2022-08-19T11:35:43;7.60;;;3.42;;
61640;SDS011;62201;49.966;8.342;2022-08-19T11:38:08;7.60;;;3.90;;
61640;SDS011;62201;49.966;8.342;2022-08-19T11:40:33;5.03;;;2.97;;
61640;SDS011;62201;49.966;8.342;2022-08-19T11:42:59;5.70;;;2.80;;
61640;SDS011;62201;49.966;8.342;2022-08-19T11:45:25;5.90;;;3.15;;
61640;SDS011;62201;49.966;8.342;2022-08-19T11:47:52;3.47;;;3.13;;
61640;SDS011;62201;49.966;8.342;2022-08-19T11:50:18;5.38;;;3.58;;
61640;SDS011;62201;49.966;8.342;2022-08-19T11:52:44;7.75;;;3.38;;
61640;SDS011;62201;49.966;8.342;2022-08-19T11:55:10;4.05;;;3.17;;
61640;SDS011;62201;49.966;8.342;2022-08-19T11:57:37;4.35;;;3.45;;
61640;SDS011;62201;49.966;8.342;2022-08-19T12:00:03;5.47;;;3.50;;
61640;SDS011;62201;49.966;8.342;2022-08-19T12:02:31;3.90;;;3.28;;
61640;SDS011;62201;49.966;8.342;2022-08-19T12:04:57;5.35;;;3.38;;
61640;SDS011;62201;49.966;8.342;2022-08-19T12:07:22;4.97;;;3.00;;
61640;SDS011;62201;49.966;8.342;2022-08-19T12:09:47;3.22;;;2.67;;
61640;SDS011;62201;49.966;8.342;2022-08-19T12:12:13;3.80;;;3.22;;
61640;SDS011;62201;49.966;8.342;2022-08-19T12:14:38;4.53;;;2.72;;
61640;SDS011;62201;49.966;8.342;2022-08-19T12:17:03;3.40;;;2.75;;
61640;SDS011;62201;49.966;8.342;2022-08-19T12:19:31;4.78;;;2.78;;
61640;SDS011;62201;49.966;8.342;2022-08-19T12:22:00;5.38;;;3.20;;
61640;SDS011;62201;49.966;8.342;2022-08-19T12:24:29;8.33;;;3.80;;
61640;SDS011;62201;49.966;8.342;2022-08-19T12:26:56;5.78;;;3.75;;
61640;SDS011;62201;49.966;8.342;2022-08-19T12:29:23;4.35;;;3.72;;
61640;SDS011;62201;49.966;8.342;2022-08-19T12:31:53;6.07;;;3.65;;
61640;SDS011;62201;49.966;8.342;2022-08-19T12:34:19;10.70;;;3.47;;
61640;SDS011;62201;49.966;8.342;2022-08-19T12:36:45;11.27;;;3.08;;
61640;SDS011;62201;49.966;8.342;2022-08-19T12:39:10;5.88;;;3.28;;
61640;SDS011;62201;49.966;8.342;2022-08-19T12:41:36;5.68;;;3.25;;
61640;SDS011;62201;49.966;8.342;2022-08-19T12:44:02;4.25;;;3.33;;
61640;SDS011;62201;49.966;8.342;2022-08-19T12:46:28;3.78;;;3.35;;
61640;SDS011;62201;49.966;8.342;2022-08-19T12:48:53;6.82;;;3.40;;
61640;SDS011;62201;49.966;8.342;2022-08-19T12:51:19;4.50;;;3.45;;
61640;SDS011;62201;49.966;8.342;2022-08-19T12:53:45;4.80;;;3.33;;
61640;SDS011;62201;49.966;8.342;2022-08-19T12:56:11;5.50;;;4.05;;
61640;SDS011;62201;49.966;8.342;2022-08-19T12:58:39;4.20;;;3.47;;
61640;SDS011;62201;49.966;8.342;2022-08-19T13:01:07;3.92;;;3.53;;
61640;SDS011;62201;49.966;8.342;2022-08-19T13:03:34;4.90;;;3.78;;
61640;SDS011;62201;49.966;8.342;2022-08-19T13:06:00;5.65;;;3.20;;
61640;SDS011;62201;49.966;8.342;2022-08-19T13:08:25;6.53;;;3.22;;
61640;SDS011;62201;49.966;8.342;2022-08-19T13:10:51;6.45;;;3.17;;
61640;SDS011;62201;49.966;8.342;2022-08-19T13:13:16;6.13;;;3.25;;
61640;SDS011;62201;49.966;8.342;2022-08-19T13:15:41;3.65;;;3.17;;
61640;SDS011;62201;49.966;8.342;2022-08-19T13:18:08;4.63;;;3.20;;
61640;SDS011;62201;49.966;8.342;2022-08-19T13:20:35;3.67;;;2.97;;
61640;SDS011;62201;49.966;8.342;2022-08-19T13:23:02;6.07;;;3.40;;
61640;SDS011;62201;49.966;8.342;2022-08-19T13:25:28;4.55;;;3.25;;
61640;SDS011;62201;49.966;8.342;2022-08-19T13:27:54;5.28;;;3.85;;
61640;SDS011;62201;49.966;8.342;2022-08-19T13:30:20;5.90;;;3.83;;
61640;SDS011;62201;49.966;8.342;2022-08-19T13:33:05;3.83;;;3.50;;
61640;SDS011;62201;49.966;8.342;2022-08-19T13:35:40;5.30;;;3.30;;
61640;SDS011;62201;49.966;8.342;2022-08-19T13:38:08;5.05;;;3.30;;
61640;SDS011;62201;49.966;8.342;2022-08-19T13:40:35;3.35;;;2.95;;
61640;SDS011;62201;49.966;8.342;2022-08-19T13:43:01;7.45;;;3.75;;
61640;SDS011;62201;49.966;8.342;2022-08-19T13:45:32;5.07;;;2.90;;
61640;SDS011;62201;49.966;8.342;2022-08-19T13:47:59;4.95;;;3.00;;
61640;SDS011;62201;49.966;8.342;2022-08-19T13:50:26;4.43;;;3.55;;
61640;SDS011;62201;49.966;8.342;2022-08-19T13:52:54;3.65;;;3.35;;
61640;SDS011;62201;49.966;8.342;2022-08-19T13:55:20;3.60;;;2.78;;
61640;SDS011;62201;49.966;8.342;2022-08-19T13:57:53;3.35;;;2.47;;
61640;SDS011;62201;49.966;8.342;2022-08-19T14:00:20;7.28;;;3.08;;
61640;SDS011;62201;49.966;8.342;2022-08-19T14:02:47;3.38;;;3.03;;
61640;SDS011;62201;49.966;8.342;2022-08-19T14:05:16;3.63;;;3.10;;
61640;SDS011;62201;49.966;8.342;2022-08-19T14:07:42;2.90;;;2.70;;
61640;SDS011;62201;49.966;8.342;2022-08-19T14:10:08;3.60;;;3.10;;
61640;SDS011;62201;49.966;8.342;2022-08-19T14:12:35;6.75;;;3.20;;
61640;SDS011;62201;49.966;8.342;2022-08-19T14:15:01;5.35;;;3.17;;
61640;SDS011;62201;49.966;8.342;2022-08-19T14:17:28;6.40;;;3.50;;
61640;SDS011;62201;49.966;8.342;2022-08-19T14:19:57;9.95;;;3.17;;
61640;SDS011;62201;49.966;8.342;2022-08-19T14:24:51;5.75;;;3.45;;
61640;SDS011;62201;49.966;8.342;2022-08-19T14:27:16;6.45;;;3.80;;
61640;SDS011;62201;49.966;8.342;2022-08-19T14:29:41;4.15;;;3.72;;
61640;SDS011;62201;49.966;8.342;2022-08-19T14:32:07;6.07;;;3.40;;
61640;SDS011;62201;49.966;8.342;2022-08-19T14:34:33;8.55;;;3.58;;
61640;SDS011;62201;49.966;8.342;2022-08-19T14:36:58;7.00;;;3.53;;
61640;SDS011;62201;49.966;8.342;2022-08-19T14:39:24;5.00;;;2.88;;
61640;SDS011;62201;49.966;8.342;2022-08-19T14:41:49;4.18;;;3.10;;
61640;SDS011;62201;49.966;8.342;2022-08-19T14:44:15;9.73;;;3.13;;
61640;SDS011;62201;49.966;8.342;2022-08-19T14:46:40;4.82;;;3.10;;
61640;SDS011;62201;49.966;8.342;2022-08-19T14:49:06;5.25;;;3.10;;
61640;SDS011;62201;49.966;8.342;2022-08-19T14:51:32;4.65;;;2.78;;